Time;durP1;ratioP1;P1;durP2;ratioP2;P2;SDS_P1;SDS_P2;PMS_P1;PMS_P2;Temp;Humidity;BMP_temperature;BMP_pressure;BME280_temperature;BME280_humidity;BME280_pressure;Samples;Min_cycle;Max_cycle;Signal;HPM_P1;HPM_P2
2023/05/03 00:02:12;;;;;;;7.80;5.30;;;;;;;11.78;70.16;100843.73;131659;1247;107525;-79
2023/05/03 00:05:18;;;;;;;8.30;4.80;;;;;;;11.73;69.92;100847.14;131432;1254;235106;-79
2023/05/03 00:08:24;;;;;;;7.70;4.70;;;;;;;11.69;70.15;100849.05;131598;1253;107249;-79
2023/05/03 00:11:30;;;;;;;6.70;4.10;;;;;;;11.60;69.94;100847.42;131758;1247;107379;-79
2023/05/03 00:14:35;;;;;;;7.80;4.70;;;;;;;11.53;69.93;100848.79;131465;1253;107499;-79
2023/05/03 00:17:41;;;;;;;9.00;4.40;;;;;;;11.51;69.90;100842.58;131415;1253;107501;-79
2023/05/03 00:20:46;;;;;;;5.80;4.10;;;;;;;11.56;69.77;100845.98;131326;1251;107450;-79
2023/05/03 00:23:52;;;;;;;24.50;12.70;;;;;;;11.54;69.81;100849.36;131669;1253;107456;-79
2023/05/03 00:26:57;;;;;;;102.10;47.00;;;;;;;11.34;70.58;100858.02;131650;1247;107250;-79
2023/05/03 00:30:03;;;;;;;107.20;48.40;;;;;;;11.11;70.18;100864.55;131514;1251;107512;-79
2023/05/03 00:33:09;;;;;;;174.30;77.60;;;;;;;10.93;70.66;100866.44;131511;1250;107526;-79
2023/05/03 00:36:15;;;;;;;38.70;20.30;;;;;;;10.80;70.39;100872.89;131797;1247;107508;-79
2023/05/03 00:39:21;;;;;;;15.30;9.90;;;;;;;10.73;70.81;100870.89;131859;1254;107559;-79
2023/05/03 00:42:26;;;;;;;13.80;8.40;;;;;;;10.72;70.39;100873.64;131710;1250;107457;-79
2023/05/03 00:45:34;;;;;;;9.20;5.90;;;;;;;10.76;70.66;100879.11;131468;1253;107235;-79
2023/05/03 00:48:39;;;;;;;8.00;5.10;;;;;;;10.83;70.44;100879.21;131201;1253;107657;-79
2023/05/03 00:51:45;;;;;;;6.80;5.00;;;;;;;10.90;70.50;100874.02;131661;1253;107334;-79
2023/05/03 00:54:51;;;;;;;8.30;5.00;;;;;;;10.94;70.39;100878.74;131713;1253;107495;-78
2023/05/03 00:57:57;;;;;;;7.60;4.70;;;;;;;10.99;70.53;100881.16;131736;1251;107417;-79
2023/05/03 01:01:03;;;;;;;7.50;5.00;;;;;;;10.99;70.30;100882.23;131576;1253;107275;-79
2023/05/03 01:04:09;;;;;;;6.50;5.00;;;;;;;10.97;70.27;100884.02;131815;1247;107491;-78
2023/05/03 01:07:24;;;;;;;8.10;4.90;;;;;;;10.97;70.12;100885.98;131885;1251;107323;-79
2023/05/03 01:10:42;;;;;;;6.60;4.80;;;;;;;10.96;70.25;100888.16;131823;1253;107392;-79
2023/05/03 01:13:56;;;;;;;6.20;4.50;;;;;;;10.95;70.13;100893.61;131770;1248;107470;-79
2023/05/03 01:17:09;;;;;;;7.70;5.60;;;;;;;10.98;70.52;100891.79;131848;1259;106481;-79
2023/05/03 01:20:19;;;;;;;8.40;5.40;;;;;;;10.99;70.28;100889.54;132157;1251;107523;-79
2023/05/03 01:23:33;;;;;;;6.70;5.10;;;;;;;10.99;70.16;100888.65;132580;1251;107455;-79
2023/05/03 01:26:39;;;;;;;6.80;4.70;;;;;;;10.97;70.25;100895.55;132486;1247;107199;-79
2023/05/03 01:29:44;;;;;;;6.20;3.60;;;;;;;10.91;69.62;100899.54;132455;1247;107492;-79
2023/05/03 01:33:05;;;;;;;6.70;3.60;;;;;;;10.84;69.64;100893.77;132314;1251;105416;-79
2023/05/03 01:36:16;;;;;;;6.00;3.40;;;;;;;10.93;69.61;100885.80;131353;1253;107215;-79
2023/05/03 01:39:26;;;;;;;5.60;3.60;;;;;;;11.05;69.16;100887.41;131590;1247;108073;-79
2023/05/03 01:42:32;;;;;;;5.60;3.40;;;;;;;11.09;69.32;100890.75;131544;1253;107519;-79
2023/05/03 01:45:38;;;;;;;6.10;4.00;;;;;;;10.95;69.31;100895.73;131718;1253;106512;-79
2023/05/03 01:48:44;;;;;;;5.10;3.70;;;;;;;10.86;69.61;100886.99;131770;1254;107361;-79
2023/05/03 01:51:50;;;;;;;5.40;3.70;;;;;;;10.90;69.90;100889.28;131646;1261;107504;-79
2023/05/03 01:54:56;;;;;;;5.80;4.00;;;;;;;10.95;69.84;100887.91;131729;1251;107387;-79
2023/05/03 01:58:02;;;;;;;5.10;3.90;;;;;;;10.98;70.11;100883.21;131748;1251;107478;-79
2023/05/03 02:01:08;;;;;;;6.20;3.90;;;;;;;11.01;70.11;100883.33;131815;1254;107393;-79
2023/05/03 02:04:13;;;;;;;5.70;3.60;;;;;;;11.04;70.08;100884.14;132361;1254;107510;-79
2023/05/03 02:07:19;;;;;;;5.30;3.80;;;;;;;11.03;70.25;100888.49;132351;1253;107537;-80
2023/05/03 02:10:24;;;;;;;5.50;3.40;;;;;;;11.03;70.29;100889.93;132321;1254;107528;-79
2023/05/03 02:13:30;;;;;;;4.80;3.70;;;;;;;11.05;70.46;100883.29;132378;1248;107385;-79
2023/05/03 02:16:35;;;;;;;10.00;5.50;;;;;;;11.10;70.34;100885.74;132174;1251;106447;-79
2023/05/03 02:19:41;;;;;;;6.50;3.70;;;;;;;11.09;70.60;100893.11;132112;1251;105814;-79
2023/05/03 02:22:46;;;;;;;5.50;4.10;;;;;;;10.92;70.50;100898.49;132080;1248;108210;-79
2023/05/03 02:25:52;;;;;;;5.80;4.00;;;;;;;10.83;70.82;100902.70;131352;1251;107423;-79
2023/05/03 02:28:58;;;;;;;7.00;3.90;;;;;;;10.68;70.99;100906.77;131182;1254;107233;-80
2023/05/03 02:32:06;;;;;;;5.90;4.20;;;;;;;10.52;71.94;100906.58;131584;1251;107394;-79
2023/05/03 02:35:12;;;;;;;7.70;4.10;;;;;;;10.35;71.76;100904.36;132093;1250;107444;-79
2023/05/03 02:38:17;;;;;;;6.20;4.30;;;;;;;10.22;71.81;100909.21;132225;1251;107350;-79
2023/05/03 02:41:23;;;;;;;7.40;4.50;;;;;;;10.15;71.59;100915.70;132169;1248;107390;-78
2023/05/03 02:44:29;;;;;;;7.40;4.00;;;;;;;10.05;72.10;100921.02;131423;1251;107195;-79
2023/05/03 02:47:35;;;;;;;6.10;3.70;;;;;;;9.96;71.90;100935.27;131428;1248;107373;-79
2023/05/03 02:50:42;;;;;;;6.50;3.50;;;;;;;9.91;72.63;100936.27;131648;1254;107504;-79
2023/05/03 02:53:47;;;;;;;8.20;3.80;;;;;;;9.93;72.68;100932.88;131564;1248;107251;-79
2023/05/03 02:56:53;;;;;;;5.70;3.90;;;;;;;9.97;72.03;100926.29;131483;1254;105664;-79
2023/05/03 02:59:58;;;;;;;7.20;4.30;;;;;;;10.08;71.79;100930.16;131754;1247;107735;-79
2023/05/03 03:03:05;;;;;;;6.90;4.30;;;;;;;10.16;71.45;100927.86;131725;1253;107417;-79
2023/05/03 03:06:10;;;;;;;7.10;4.20;;;;;;;10.27;71.36;100928.68;131648;1247;107526;-79
2023/05/03 03:09:17;;;;;;;7.20;4.60;;;;;;;10.32;71.22;100934.71;131949;1251;107347;-79
2023/05/03 03:12:26;;;;;;;8.70;4.40;;;;;;;10.31;71.24;100937.96;131673;1263;107363;-79
2023/05/03 03:15:33;;;;;;;8.50;4.50;;;;;;;10.21;71.79;100945.39;131646;1251;107496;-79
2023/05/03 03:18:38;;;;;;;6.80;4.50;;;;;;;10.08;72.04;100952.55;131592;1247;107366;-79
2023/05/03 03:21:44;;;;;;;6.80;4.00;;;;;;;9.99;72.14;100955.59;131402;1254;107438;-79
2023/05/03 03:24:50;;;;;;;7.00;3.80;;;;;;;9.95;72.11;100957.01;131587;1253;107503;-79
2023/05/03 03:27:55;;;;;;;9.80;4.50;;;;;;;9.92;72.24;100960.86;131734;1248;106531;-79
2023/05/03 03:31:01;;;;;;;7.00;4.20;;;;;;;9.94;72.10;100961.52;131701;1251;107412;-79
2023/05/03 03:34:07;;;;;;;6.20;3.80;;;;;;;9.96;72.32;100963.04;132033;1248;107484;-79
2023/05/03 03:37:12;;;;;;;7.00;4.00;;;;;;;10.00;71.78;100965.81;132039;1251;107372;-79
2023/05/03 03:40:19;;;;;;;6.70;4.30;;;;;;;10.02;71.77;100964.79;131780;1253;107322;-79
2023/05/03 03:43:25;;;;;;;7.50;4.40;;;;;;;10.02;72.30;100971.04;131654;1253;107382;-79
2023/05/03 03:46:31;;;;;;;7.40;5.10;;;;;;;10.03;72.03;100978.17;131892;1253;107359;-79
2023/05/03 03:49:37;;;;;;;8.90;5.10;;;;;;;9.99;72.27;100980.55;131791;1252;107335;-79
2023/05/03 03:52:42;;;;;;;9.40;4.80;;;;;;;9.98;72.60;100983.64;132025;1248;108658;-79
2023/05/03 03:55:48;;;;;;;8.20;5.00;;;;;;;9.96;72.26;100983.25;131958;1247;107447;-79
2023/05/03 03:58:55;;;;;;;8.50;4.80;;;;;;;9.93;72.66;100983.85;132094;1251;107246;-79
2023/05/03 04:02:01;;;;;;;7.60;3.90;;;;;;;9.95;72.05;100987.25;132456;1247;107511;-80
2023/05/03 04:05:07;;;;;;;9.00;4.60;;;;;;;10.00;72.63;100989.31;132434;1248;107476;-80
2023/05/03 04:08:14;;;;;;;7.90;4.50;;;;;;;10.07;72.30;100992.31;132014;1251;107382;-79
2023/05/03 04:11:21;;;;;;;9.60;4.60;;;;;;;10.14;72.32;100992.00;132029;1253;107353;-80
2023/05/03 04:14:31;;;;;;;8.80;5.10;;;;;;;10.23;72.09;100981.50;131903;1252;107340;-79
2023/05/03 04:17:37;;;;;;;8.10;5.10;;;;;;;10.38;71.90;100978.75;131890;1253;107465;-79
2023/05/03 04:20:45;;;;;;;8.90;5.60;;;;;;;10.47;71.82;100983.52;131938;1253;107385;-79
2023/05/03 04:23:51;;;;;;;8.40;4.90;;;;;;;10.49;72.02;100985.33;131873;1251;107640;-80
2023/05/03 04:27:00;;;;;;;7.20;4.90;;;;;;;10.48;71.88;100987.66;131765;1251;106416;-79
2023/05/03 04:30:10;;;;;;;8.80;5.30;;;;;;;10.52;72.13;100991.91;131841;1252;107350;-79
2023/05/03 04:33:16;;;;;;;9.00;5.30;;;;;;;10.57;72.03;100995.73;131764;1251;107397;-80
2023/05/03 04:36:24;;;;;;;11.40;6.40;;;;;;;10.65;71.91;100998.88;132065;1248;107430;-79
2023/05/03 04:39:30;;;;;;;9.30;5.20;;;;;;;10.62;71.96;101001.02;131940;1252;107398;-79
2023/05/03 04:42:36;;;;;;;9.00;5.20;;;;;;;10.59;71.81;101005.34;131917;1248;107307;-79
2023/05/03 04:45:42;;;;;;;8.40;4.90;;;;;;;10.55;71.60;101010.32;131680;1248;107510;-80
2023/05/03 04:48:51;;;;;;;8.10;4.20;;;;;;;10.50;71.67;101014.92;131797;1247;107322;-79
2023/05/03 04:51:58;;;;;;;7.90;4.80;;;;;;;10.52;71.40;101014.19;131543;1254;107379;-79
2023/05/03 04:55:04;;;;;;;7.40;4.60;;;;;;;10.62;71.16;101018.70;132081;1251;107440;-79
2023/05/03 04:58:10;;;;;;;6.00;4.40;;;;;;;10.67;70.90;101012.02;132175;1248;107274;-81
2023/05/03 05:01:17;;;;;;;7.20;4.80;;;;;;;10.69;70.55;101012.59;132023;1251;106503;-78
2023/05/03 05:04:25;;;;;;;8.00;4.80;;;;;;;10.72;70.62;101022.38;131871;1253;107318;-78
2023/05/03 05:07:31;;;;;;;9.70;5.20;;;;;;;10.85;70.40;101030.52;131845;1253;107439;-78
2023/05/03 05:10:40;;;;;;;8.90;5.10;;;;;;;11.09;70.43;101035.56;131734;1253;107500;-78
2023/05/03 05:13:47;;;;;;;7.20;4.40;;;;;;;11.25;69.48;101043.16;131571;1253;108249;-78
2023/05/03 05:16:52;;;;;;;7.30;5.00;;;;;;;11.39;69.74;101045.26;131444;1252;107511;-79
2023/05/03 05:19:58;;;;;;;6.50;4.20;;;;;;;11.53;69.12;101047.18;131441;1251;107920;-79
2023/05/03 05:23:05;;;;;;;6.80;4.20;;;;;;;11.64;67.34;101046.36;131796;1248;107487;-78
2023/05/03 05:26:11;;;;;;;5.10;3.60;;;;;;;11.83;66.99;101052.02;131715;1251;107317;-78
2023/05/03 05:29:17;;;;;;;4.40;3.00;;;;;;;12.11;67.07;101053.01;131369;1253;107363;-79
2023/05/03 05:32:25;;;;;;;5.50;3.10;;;;;;;12.42;65.41;101054.14;131439;1253;106564;-80
2023/05/03 05:35:32;;;;;;;6.50;3.10;;;;;;;12.52;64.60;101063.88;131461;1254;107568;-80
2023/05/03 05:38:37;;;;;;;4.10;2.60;;;;;;;12.52;63.76;101065.85;131556;1253;107379;-77
2023/05/03 05:41:44;;;;;;;4.00;2.30;;;;;;;12.49;62.98;101070.45;131329;1250;107307;-80
2023/05/03 05:44:51;;;;;;;2.90;2.10;;;;;;;12.39;62.32;101077.61;131447;1253;107484;-81
2023/05/03 05:47:57;;;;;;;4.60;2.40;;;;;;;12.25;59.79;101087.30;131583;1254;107406;-80
2023/05/03 05:51:03;;;;;;;3.80;2.10;;;;;;;12.16;60.83;101092.45;131462;1253;107607;-79
2023/05/03 05:54:09;;;;;;;2.70;1.70;;;;;;;12.13;61.74;101098.44;131325;1248;106364;-79
2023/05/03 05:57:15;;;;;;;3.50;1.80;;;;;;;12.08;60.74;101099.31;131471;1253;107573;-79
2023/05/03 06:00:23;;;;;;;3.50;2.20;;;;;;;12.05;60.44;101103.66;131422;1253;106531;-79
2023/05/03 06:03:30;;;;;;;4.00;2.70;;;;;;;11.92;59.85;101108.41;131089;1260;107192;-79
2023/05/03 06:06:37;;;;;;;5.40;3.10;;;;;;;11.70;60.62;101106.84;131124;1253;107382;-80
2023/05/03 06:09:43;;;;;;;4.80;3.10;;;;;;;11.57;60.70;101108.55;131171;1256;107409;-79
2023/05/03 06:12:49;;;;;;;5.10;3.10;;;;;;;11.47;61.12;101113.20;131276;1254;107415;-80
2023/05/03 06:16:07;;;;;;;4.90;3.40;;;;;;;11.40;61.49;101118.55;131007;1255;107404;-82
2023/05/03 06:19:14;;;;;;;5.90;3.90;;;;;;;11.39;62.30;101125.85;131033;1256;108380;-80
2023/05/03 06:22:22;;;;;;;6.40;3.20;;;;;;;11.35;61.93;101126.49;131119;1250;107340;-80
2023/05/03 06:25:35;;;;;;;6.60;3.60;;;;;;;11.33;62.38;101127.97;131422;1250;107554;-81
2023/05/03 06:28:55;;;;;;;5.60;3.60;;;;;;;11.28;62.51;101128.73;131080;1251;107404;-80
2023/05/03 06:32:02;;;;;;;6.90;4.50;;;;;;;11.29;63.31;101129.89;131137;1250;106658;-79
2023/05/03 06:35:09;;;;;;;10.00;5.70;;;;;;;11.22;64.02;101131.56;131171;1250;107354;-79
2023/05/03 06:38:17;;;;;;;8.20;4.70;;;;;;;11.22;64.51;101130.52;131429;1250;107511;-79
2023/05/03 06:41:22;;;;;;;8.40;4.50;;;;;;;11.26;63.84;101133.04;131794;1253;107250;-81
2023/05/03 06:44:28;;;;;;;7.60;4.40;;;;;;;11.15;63.16;101144.86;131181;1259;107500;-79
2023/05/03 06:47:33;;;;;;;7.60;4.20;;;;;;;11.00;63.08;101144.95;131220;1256;107546;-79
2023/05/03 06:50:39;;;;;;;5.30;3.90;;;;;;;10.94;62.51;101149.19;131294;1253;107533;-79
2023/05/03 06:53:45;;;;;;;6.40;3.80;;;;;;;10.94;62.89;101144.70;131357;1256;109403;-78
2023/05/03 06:56:51;;;;;;;8.70;3.80;;;;;;;10.99;62.25;101147.67;131163;1256;107659;-79
2023/05/03 06:59:56;;;;;;;5.70;3.50;;;;;;;11.00;62.01;101148.86;131126;1250;107523;-78
2023/05/03 07:03:03;;;;;;;6.20;3.70;;;;;;;11.06;62.13;101149.71;131253;1261;107578;-79
2023/05/03 07:06:09;;;;;;;4.80;3.20;;;;;;;11.18;61.69;101154.05;131207;1252;107219;-79
2023/05/03 07:09:14;;;;;;;6.70;3.70;;;;;;;11.27;60.81;101153.59;131317;1256;107392;-79
2023/05/03 07:12:20;;;;;;;6.60;3.60;;;;;;;11.33;59.46;101160.69;131425;1251;106184;-78
2023/05/03 07:15:25;;;;;;;5.70;3.50;;;;;;;11.45;60.37;101158.27;131322;1253;106494;-79
2023/05/03 07:18:31;;;;;;;6.80;3.40;;;;;;;11.63;60.10;101156.51;131224;1251;107536;-78
2023/05/03 07:21:38;;;;;;;4.00;3.30;;;;;;;11.72;58.52;101153.31;131372;1253;105742;-78
2023/05/03 07:24:43;;;;;;;6.80;3.10;;;;;;;11.73;56.47;101155.39;131263;1255;107540;-78
2023/05/03 07:27:49;;;;;;;7.00;2.80;;;;;;;11.83;56.01;101158.42;131140;1253;107557;-79
2023/05/03 07:30:56;;;;;;;6.90;3.10;;;;;;;11.94;55.18;101156.86;131070;1253;107062;-80
2023/05/03 07:34:01;;;;;;;5.20;3.10;;;;;;;12.06;54.56;101155.29;131073;1250;107568;-79
2023/05/03 07:37:10;;;;;;;21.70;10.00;;;;;;;12.20;55.22;101156.15;131083;1256;107443;-79
2023/05/03 07:40:16;;;;;;;7.80;4.60;;;;;;;12.39;53.52;101158.30;131173;1251;107465;-79
2023/05/03 07:43:23;;;;;;;6.80;4.20;;;;;;;12.48;53.63;101163.02;131054;1253;107532;-79
2023/05/03 07:46:33;;;;;;;5.50;3.60;;;;;;;12.70;55.00;101159.89;131022;1255;107454;-81
2023/05/03 07:49:40;;;;;;;4.10;2.80;;;;;;;12.89;54.18;101152.49;131177;1251;107309;-79
2023/05/03 07:52:46;;;;;;;3.90;2.50;;;;;;;13.06;54.97;101146.42;131297;1253;108112;-79
2023/05/03 07:55:55;;;;;;;8.90;2.40;;;;;;;13.27;52.68;101153.02;131369;1253;107587;-79
2023/05/03 07:59:01;;;;;;;3.70;2.30;;;;;;;13.29;51.38;101156.42;131404;1253;107556;-79
2023/05/03 08:02:07;;;;;;;3.80;2.50;;;;;;;13.11;48.90;101158.89;131279;1256;108110;-78
2023/05/03 08:05:13;;;;;;;3.10;1.90;;;;;;;12.98;49.16;101157.55;131792;1249;108006;-80
2023/05/03 08:08:19;;;;;;;4.00;2.10;;;;;;;12.90;50.10;101155.32;131633;1253;107527;-80
2023/05/03 08:11:26;;;;;;;3.80;2.00;;;;;;;12.89;49.05;101151.14;131369;1256;107224;-81
2023/05/03 08:14:32;;;;;;;7.00;3.20;;;;;;;13.03;49.28;101146.62;131177;1253;107548;-81
2023/05/03 08:17:43;;;;;;;3.50;2.50;;;;;;;12.94;46.73;101150.05;131184;1255;107375;-78
2023/05/03 08:20:49;;;;;;;4.20;2.20;;;;;;;12.69;46.19;101157.33;131074;1253;105857;-81
2023/05/03 08:23:54;;;;;;;3.30;2.00;;;;;;;12.61;47.43;101153.93;131475;1253;107648;-77
2023/05/03 08:27:01;;;;;;;16.90;9.80;;;;;;;12.84;47.53;101151.02;131368;1253;107482;-77
2023/05/03 08:30:09;;;;;;;3.80;2.80;;;;;;;13.04;45.77;101155.10;131169;1255;105855;-77
2023/05/03 08:33:15;;;;;;;4.20;3.20;;;;;;;13.14;48.44;101146.21;131134;1251;107573;-77
2023/05/03 08:36:20;;;;;;;13.80;7.80;;;;;;;13.24;46.61;101149.20;131119;1254;106085;-78
2023/05/03 08:39:26;;;;;;;5.10;2.80;;;;;;;13.03;46.56;101156.05;131072;1250;107122;-77
2023/05/03 08:42:32;;;;;;;4.30;2.20;;;;;;;12.81;46.54;101157.77;131034;1253;107525;-77
2023/05/03 08:45:38;;;;;;;4.30;2.30;;;;;;;12.78;46.87;101155.95;131317;1251;107314;-77
2023/05/03 08:48:45;;;;;;;2.60;2.00;;;;;;;12.98;48.12;101151.31;131379;1255;107528;-79
2023/05/03 08:51:51;;;;;;;4.00;2.40;;;;;;;13.16;46.69;101155.86;131417;1257;107581;-79
2023/05/03 08:54:57;;;;;;;8.80;5.40;;;;;;;13.28;45.31;101157.23;131310;1254;105925;-78
2023/05/03 08:58:03;;;;;;;4.10;2.50;;;;;;;13.38;46.78;101155.42;131048;1254;108584;-77
2023/05/03 09:01:09;;;;;;;3.40;2.40;;;;;;;13.42;44.72;101156.48;131027;1255;105919;-78
2023/05/03 09:04:16;;;;;;;3.30;2.00;;;;;;;13.14;43.10;101164.58;131152;1251;107532;-78
2023/05/03 09:07:21;;;;;;;2.50;1.90;;;;;;;12.82;44.00;101166.23;131188;1251;107225;-77
2023/05/03 09:10:27;;;;;;;3.40;2.20;;;;;;;12.79;44.32;101163.66;131243;1254;107573;-77
2023/05/03 09:13:32;;;;;;;4.80;2.10;;;;;;;12.97;44.61;101160.17;131351;1251;108161;-77
2023/05/03 09:16:40;;;;;;;2.80;1.90;;;;;;;13.17;43.89;101161.48;131342;1254;107556;-79
2023/05/03 09:19:56;;;;;;;2.00;1.70;;;;;;;13.42;45.10;101153.44;131359;1253;107759;-78
2023/05/03 09:23:01;;;;;;;2.80;1.80;;;;;;;13.46;42.99;101160.66;131396;1253;107404;-78
2023/05/03 09:26:07;;;;;;;2.20;1.70;;;;;;;13.33;44.68;101162.27;131363;1253;107472;-77
2023/05/03 09:29:26;;;;;;;4.90;2.20;;;;;;;13.29;43.54;101163.58;131451;1253;106401;-77
2023/05/03 09:32:47;;;;;;;5.20;2.70;;;;;;;13.17;43.67;101171.85;131295;1253;106394;-78
2023/05/03 09:35:59;;;;;;;4.50;2.50;;;;;;;13.21;43.95;101168.09;131175;1261;107465;-78
2023/05/03 09:39:17;;;;;;;2.80;1.90;;;;;;;13.23;43.02;101172.35;131336;1253;107402;-78
2023/05/03 09:42:23;;;;;;;3.40;1.90;;;;;;;13.14;43.53;101175.16;131423;1253;107544;-77
2023/05/03 09:45:28;;;;;;;5.70;3.70;;;;;;;13.02;42.89;101173.63;131325;1253;107478;-77
2023/05/03 09:48:35;;;;;;;4.70;2.40;;;;;;;13.09;45.22;101165.45;131233;1254;105832;-77
2023/05/03 09:51:40;;;;;;;4.20;2.80;;;;;;;13.46;44.07;101165.01;131144;1253;106863;-77
2023/05/03 09:54:47;;;;;;;5.00;2.40;;;;;;;13.58;43.11;101163.64;131262;1251;105906;-77
2023/05/03 09:57:56;;;;;;;6.90;2.80;;;;;;;13.50;41.34;101174.44;131274;1248;107350;-77
2023/05/03 10:01:02;;;;;;;4.00;2.60;;;;;;;13.53;42.22;101170.55;131404;1253;105529;-79
2023/05/03 10:04:09;;;;;;;2.60;2.00;;;;;;;13.66;43.92;101161.42;131421;1253;107432;-79
2023/05/03 10:07:17;;;;;;;6.20;3.50;;;;;;;13.92;43.06;101161.15;131332;1259;106786;-79
2023/05/03 10:10:24;;;;;;;2.20;1.70;;;;;;;14.01;42.92;101166.41;131212;1253;105600;-77
2023/05/03 10:13:31;;;;;;;4.30;2.60;;;;;;;13.99;42.61;101169.98;131300;1251;106759;-79
2023/05/03 10:16:40;;;;;;;2.30;1.70;;;;;;;14.11;44.06;101165.39;131336;1253;107405;-77
2023/05/03 10:19:52;;;;;;;6.00;3.50;;;;;;;14.30;42.28;101159.51;131337;1253;109234;-80
2023/05/03 10:23:12;;;;;;;3.10;1.90;;;;;;;14.35;42.10;101165.45;131351;1253;105614;-78
2023/05/03 10:26:17;;;;;;;4.10;2.20;;;;;;;14.32;41.95;101162.86;131266;1253;107202;-79
2023/05/03 10:29:52;;;;;;;4.60;2.80;;;;;;;14.37;42.50;101158.98;131164;1251;108008;-77
2023/05/03 10:32:58;;;;;;;2.70;1.90;;;;;;;14.39;40.60;101165.05;131152;1254;107311;-77
2023/05/03 10:36:13;;;;;;;3.20;2.10;;;;;;;14.50;42.35;101160.14;131200;1263;107219;-78
2023/05/03 10:39:18;;;;;;;3.40;1.80;;;;;;;14.63;41.38;101163.38;131353;1252;107538;-77
2023/05/03 10:42:26;;;;;;;3.00;1.80;;;;;;;14.45;39.82;101159.77;131078;1254;107492;-78
2023/05/03 10:45:32;;;;;;;2.70;1.70;;;;;;;14.34;41.35;101159.60;131395;1253;107223;-77
2023/05/03 10:48:37;;;;;;;3.20;1.80;;;;;;;14.54;41.91;101158.33;131376;1253;107618;-78
2023/05/03 10:51:44;;;;;;;2.40;1.70;;;;;;;14.91;41.12;101160.67;131331;1253;107509;-78
2023/05/03 10:54:49;;;;;;;2.60;1.60;;;;;;;15.00;38.40;101155.23;131300;1251;107267;-78
2023/05/03 10:58:00;;;;;;;6.70;5.10;;;;;;;14.88;40.59;101161.70;131503;1252;107602;-79
2023/05/03 11:01:06;;;;;;;13.50;10.80;;;;;;;14.53;40.30;101163.08;131874;1253;107392;-78
2023/05/03 11:04:18;;;;;;;18.80;11.50;;;;;;;14.20;40.89;101161.27;131935;1253;107491;-79
2023/05/03 11:07:24;;;;;;;17.50;11.50;;;;;;;13.99;41.52;101167.48;131830;1257;107235;-81
2023/05/03 11:10:30;;;;;;;4.80;3.20;;;;;;;14.03;41.55;101165.85;132032;1254;107593;-80
2023/05/03 11:13:36;;;;;;;3.20;2.10;;;;;;;14.12;40.57;101164.69;131949;1253;105672;-79
2023/05/03 11:16:49;;;;;;;3.00;2.20;;;;;;;14.26;42.09;101157.96;131821;1256;107208;-79
2023/05/03 11:19:55;;;;;;;3.60;2.50;;;;;;;14.42;41.35;101156.54;131747;1261;107494;-79
2023/05/03 11:23:01;;;;;;;2.20;1.80;;;;;;;14.52;40.56;101163.41;131754;1248;107529;-77
2023/05/03 11:26:09;;;;;;;3.10;2.20;;;;;;;14.73;40.97;101155.33;131375;1263;107156;-77
2023/05/03 11:29:16;;;;;;;5.20;3.20;;;;;;;14.93;40.51;101155.27;131562;1253;107460;-77
2023/05/03 11:32:22;;;;;;;3.70;2.30;;;;;;;14.79;39.61;101171.54;131263;1254;107451;-79
2023/05/03 11:35:30;;;;;;;3.60;1.90;;;;;;;14.38;39.61;101174.14;131573;1257;107530;-81
2023/05/03 11:38:38;;;;;;;5.40;3.10;;;;;;;14.18;40.53;101177.09;131521;1254;107520;-78
2023/05/03 11:41:44;;;;;;;4.60;3.20;;;;;;;14.07;40.17;101177.25;131634;1253;107405;-77
2023/05/03 11:44:52;;;;;;;3.10;2.00;;;;;;;14.06;40.83;101176.10;131529;1253;107535;-76
2023/05/03 11:47:58;;;;;;;2.60;1.90;;;;;;;14.41;41.44;101170.04;131684;1253;107476;-77
2023/05/03 11:51:10;;;;;;;3.00;2.00;;;;;;;14.90;41.34;101163.98;131477;1253;106563;-77
2023/05/03 11:54:15;;;;;;;2.10;1.60;;;;;;;15.26;40.44;101161.17;131263;1256;107489;-77
2023/05/03 11:57:22;;;;;;;3.70;1.90;;;;;;;15.43;39.34;101155.90;131226;1253;107444;-78
2023/05/03 12:00:30;;;;;;;2.20;1.70;;;;;;;15.28;39.31;101160.52;131399;1254;108698;-77
2023/05/03 12:03:35;;;;;;;2.90;1.40;;;;;;;15.04;39.88;101162.35;131404;1253;107460;-77
2023/05/03 12:06:51;;;;;;;2.90;1.40;;;;;;;14.73;38.91;101175.10;131226;1258;107355;-78
2023/05/03 12:09:56;;;;;;;2.50;1.60;;;;;;;14.42;39.12;101172.12;131495;1252;107263;-78
2023/05/03 12:13:02;;;;;;;13.70;7.50;;;;;;;14.24;39.27;101167.14;131351;1261;107555;-76
2023/05/03 12:16:13;;;;;;;3.50;2.20;;;;;;;14.39;39.06;101165.79;131208;1261;106949;-77
2023/05/03 12:19:28;;;;;;;3.30;1.70;;;;;;;14.59;39.97;101160.92;131277;1255;106624;-76
2023/05/03 12:22:34;;;;;;;2.50;1.60;;;;;;;15.00;39.93;101155.78;131325;1253;109424;-77
2023/05/03 12:25:39;;;;;;;3.90;1.70;;;;;;;15.33;40.14;101149.64;131485;1253;107501;-77
2023/05/03 12:28:47;;;;;;;3.90;2.70;;;;;;;15.46;38.37;101151.53;131137;1251;108233;-77
2023/05/03 12:31:52;;;;;;;6.50;4.90;;;;;;;15.37;38.66;101147.07;131222;1254;107517;-77
2023/05/03 12:34:59;;;;;;;7.00;4.00;;;;;;;15.23;38.94;101149.06;131187;1251;107249;-78
2023/05/03 12:38:06;;;;;;;5.70;3.40;;;;;;;14.90;38.09;101150.19;131285;1260;107271;-78
2023/05/03 12:41:12;;;;;;;6.90;4.70;;;;;;;14.66;39.27;101154.60;131433;1253;105488;-77
2023/05/03 12:44:18;;;;;;;3.60;2.60;;;;;;;14.68;39.51;101149.55;131119;1263;106508;-77
2023/05/03 12:47:24;;;;;;;2.60;1.80;;;;;;;14.94;40.16;101146.38;131184;1251;107236;-78
2023/05/03 12:50:30;;;;;;;4.60;3.50;;;;;;;15.30;39.42;101137.56;131272;1253;107512;-77
2023/05/03 12:53:35;;;;;;;2.80;1.80;;;;;;;15.63;39.56;101130.20;131369;1263;107549;-77
2023/05/03 12:56:42;;;;;;;2.60;1.90;;;;;;;15.89;39.62;101128.13;131859;1251;107636;-77
2023/05/03 12:59:51;;;;;;;2.50;1.50;;;;;;;16.05;38.73;101126.58;132529;1251;106066;-78
2023/05/03 13:02:57;;;;;;;2.50;1.50;;;;;;;15.89;37.32;101130.91;131466;1261;107441;-78
2023/05/03 13:06:04;;;;;;;2.90;1.70;;;;;;;15.78;38.04;101131.66;131372;1254;107516;-78
2023/05/03 13:09:10;;;;;;;1.80;1.50;;;;;;;15.60;37.89;101132.08;131394;1248;106369;-78
2023/05/03 13:12:19;;;;;;;1.90;1.30;;;;;;;15.54;38.32;101129.31;131439;1254;107243;-78
2023/05/03 13:15:26;;;;;;;2.40;1.40;;;;;;;15.35;38.03;101128.51;131437;1253;106682;-78
2023/05/03 13:18:31;;;;;;;2.30;1.50;;;;;;;15.14;37.97;101131.23;131135;1248;107267;-78
2023/05/03 13:21:37;;;;;;;3.20;2.00;;;;;;;14.91;36.17;101130.73;131207;1248;107451;-78
2023/05/03 13:24:44;;;;;;;2.50;1.50;;;;;;;14.74;37.08;101129.13;131141;1253;107536;-78
2023/05/03 13:27:51;;;;;;;2.00;1.50;;;;;;;14.79;36.91;101119.29;131488;1251;107296;-78
2023/05/03 13:30:57;;;;;;;2.70;1.40;;;;;;;14.85;37.23;101116.98;131506;1248;107228;-77
2023/05/03 13:34:03;;;;;;;1.80;1.40;;;;;;;14.92;36.20;101115.54;131429;1261;107534;-79
2023/05/03 13:37:08;;;;;;;3.00;1.80;;;;;;;14.94;35.94;101111.65;131295;1263;107803;-77
2023/05/03 13:40:15;;;;;;;1.80;1.30;;;;;;;15.01;35.63;101106.96;131671;1253;107531;-76
2023/05/03 13:43:20;;;;;;;1.80;1.20;;;;;;;15.13;37.07;101096.71;131466;1248;107200;-77
2023/05/03 13:46:26;;;;;;;3.20;1.50;;;;;;;15.32;35.69;101095.56;131363;1255;107533;-79
2023/05/03 13:49:31;;;;;;;5.50;2.90;;;;;;;15.25;34.41;101096.52;131464;1256;107520;-77
2023/05/03 13:52:37;;;;;;;2.80;1.60;;;;;;;15.15;35.33;101097.23;131366;1253;107521;-78
2023/05/03 13:55:42;;;;;;;2.00;1.50;;;;;;;15.14;35.63;101097.11;131297;1261;107562;-78
2023/05/03 13:58:48;;;;;;;1.60;1.20;;;;;;;15.15;36.64;101094.89;131315;1251;108341;-78
2023/05/03 14:01:54;;;;;;;2.50;1.50;;;;;;;15.33;37.19;101089.95;131404;1248;107221;-78
2023/05/03 14:04:59;;;;;;;2.60;1.50;;;;;;;15.43;36.04;101095.29;131212;1258;107525;-76
2023/05/03 14:08:05;;;;;;;2.10;1.30;;;;;;;15.39;35.00;101095.58;131338;1254;107632;-77
2023/05/03 14:11:15;;;;;;;1.90;1.40;;;;;;;15.31;35.33;101098.39;131517;1250;107486;-77